Time;durP1;ratioP1;P1;durP2;ratioP2;P2;SDS_P1;SDS_P2;PMS_P1;PMS_P2;Temp;Humidity;BMP_temperature;BMP_pressure;BME280_temperature;BME280_humidity;BME280_pressure;Samples;Min_cycle;Max_cycle;Signal;HPM_P1;HPM_P2
2021/07/06 00:01:59;;;;;;;16.15;10.53;;;;;;;16.94;89.56;94255.62;1710620;82;21527;-54
2021/07/06 00:04:26;;;;;;;16.97;9.88;;;;;;;16.91;89.58;94255.88;1708380;83;21033;-54
2021/07/06 00:06:53;;;;;;;18.45;10.15;;;;;;;16.87;89.73;94255.36;1679819;83;21141;-55
2021/07/06 00:09:21;;;;;;;16.67;10.08;;;;;;;16.87;89.78;94247.77;1692173;83;21020;-53
2021/07/06 00:11:48;;;;;;;14.20;10.03;;;;;;;16.92;89.89;94246.28;1709320;83;21071;-54
2021/07/06 00:14:15;;;;;;;19.15;9.83;;;;;;;16.94;89.64;94247.28;1710258;83;21032;-54
2021/07/06 00:16:42;;;;;;;16.32;8.73;;;;;;;16.93;89.49;94251.32;1698083;82;20977;-56
2021/07/06 00:19:09;;;;;;;14.65;8.78;;;;;;;16.94;89.40;94247.92;1706458;82;21075;-54
2021/07/06 00:21:37;;;;;;;16.57;10.78;;;;;;;16.94;89.37;94245.15;1676357;83;21023;-57
2021/07/06 00:24:06;;;;;;;12.60;8.80;;;;;;;16.95;89.42;94245.28;1707956;83;21487;-54
2021/07/06 00:26:32;;;;;;;16.70;9.45;;;;;;;16.96;89.51;94250.96;1707874;83;21000;-53
2021/07/06 00:29:00;;;;;;;12.00;9.08;;;;;;;16.97;89.21;94245.53;1680328;83;21022;-54
2021/07/06 00:31:26;;;;;;;15.55;9.10;;;;;;;16.94;89.10;94253.48;1702474;82;21124;-54
2021/07/06 00:33:53;;;;;;;14.40;9.45;;;;;;;16.90;89.06;94247.41;1723085;83;21143;-53
2021/07/06 00:36:20;;;;;;;12.03;9.75;;;;;;;16.86;89.16;94245.48;1700606;82;21044;-54
2021/07/06 00:38:46;;;;;;;14.70;9.68;;;;;;;16.83;89.43;94252.04;1707586;83;21005;-54
2021/07/06 00:41:13;;;;;;;15.90;8.78;;;;;;;16.79;89.53;94252.30;1707606;83;20972;-54
2021/07/06 00:43:41;;;;;;;15.65;8.90;;;;;;;16.78;89.79;94247.23;1703221;82;21130;-52
2021/07/06 00:46:07;;;;;;;12.93;9.70;;;;;;;16.76;89.72;94246.97;1707620;84;21028;-55
2021/07/06 00:48:35;;;;;;;16.67;10.65;;;;;;;16.75;89.94;94255.17;1707710;83;21078;-55
2021/07/06 00:51:02;;;;;;;19.95;10.85;;;;;;;16.72;89.76;94253.40;1707535;83;21512;-53
2021/07/06 00:53:29;;;;;;;15.98;10.32;;;;;;;16.67;89.88;94249.33;1707020;83;21048;-53
2021/07/06 00:55:57;;;;;;;15.32;9.13;;;;;;;16.63;89.90;94252.98;1694936;82;21113;-52
2021/07/06 00:58:24;;;;;;;13.68;9.05;;;;;;;16.57;89.79;94250.78;1703436;82;20988;-53
2021/07/06 01:00:51;;;;;;;13.13;9.18;;;;;;;16.52;90.35;94252.16;1701773;82;21017;-53
2021/07/06 01:03:18;;;;;;;12.00;9.98;;;;;;;16.50;90.35;94247.09;1706322;83;21022;-53
2021/07/06 01:05:45;;;;;;;16.45;10.28;;;;;;;16.48;90.23;94257.95;1697367;82;20986;-53
2021/07/06 01:08:11;;;;;;;16.60;9.80;;;;;;;16.45;90.40;94261.72;1698324;82;21178;-53
2021/07/06 01:10:38;;;;;;;15.28;8.50;;;;;;;16.44;90.38;94259.42;1703412;83;21062;-53
2021/07/06 01:13:06;;;;;;;12.05;8.63;;;;;;;16.42;90.55;94268.27;1705944;83;21005;-53
2021/07/06 01:15:33;;;;;;;11.85;8.65;;;;;;;16.40;90.39;94268.63;1704002;82;21119;-53
2021/07/06 01:18:07;;;;;;;14.15;7.92;;;;;;;16.39;90.60;94265.72;1701106;82;21036;-54
2021/07/06 01:20:35;;;;;;;10.28;8.75;;;;;;;16.42;90.65;94270.27;1706249;83;21123;-54
2021/07/06 01:23:04;;;;;;;16.93;8.88;;;;;;;16.45;90.23;94272.83;1699483;82;21020;-54
2021/07/06 01:25:34;;;;;;;24.77;10.48;;;;;;;16.45;90.44;94266.50;1707825;83;21032;-54
2021/07/06 01:28:02;;;;;;;26.65;11.20;;;;;;;16.45;90.35;94263.72;1703641;83;21169;-54
2021/07/06 01:30:29;;;;;;;21.02;13.18;;;;;;;16.40;90.32;94264.45;1704363;82;21083;-54
2021/07/06 01:32:55;;;;;;;20.52;12.23;;;;;;;16.33;90.14;94264.90;1708206;83;21895;-54
2021/07/06 01:35:22;;;;;;;22.22;11.30;;;;;;;16.23;90.24;94264.95;1710918;82;21007;-54
2021/07/06 01:37:56;;;;;;;22.50;10.20;;;;;;;16.19;90.53;94264.42;1706625;83;21026;-53
2021/07/06 01:40:24;;;;;;;15.80;10.25;;;;;;;16.21;90.89;94268.84;1674883;83;21004;-54
2021/07/06 01:42:53;;;;;;;15.63;10.10;;;;;;;16.26;91.17;94266.73;1700153;82;20979;-54
2021/07/06 01:45:23;;;;;;;21.23;9.30;;;;;;;16.28;90.76;94264.86;1700980;82;21739;-54
2021/07/06 01:47:53;;;;;;;21.00;9.80;;;;;;;16.26;90.80;94274.31;1707971;84;21015;-54
2021/07/06 01:50:25;;;;;;;14.70;8.50;;;;;;;16.28;90.68;94277.34;1707850;83;21464;-54
2021/07/06 01:52:57;;;;;;;16.02;9.35;;;;;;;16.29;90.63;94277.61;1707583;83;21443;-54
2021/07/06 01:55:27;;;;;;;14.30;9.43;;;;;;;16.29;90.36;94282.39;1707920;84;21440;-53
2021/07/06 01:57:56;;;;;;;24.25;9.00;;;;;;;16.28;90.26;94283.64;1699243;82;21195;-53
2021/07/06 02:00:25;;;;;;;15.20;9.23;;;;;;;16.25;90.13;94279.09;1699192;82;20968;-53
2021/07/06 02:02:58;;;;;;;12.80;8.30;;;;;;;16.25;90.17;94283.25;1693800;82;21025;-54
2021/07/06 02:05:39;;;;;;;12.88;9.28;;;;;;;16.25;90.31;94290.19;1700037;82;21089;-55
2021/07/06 02:08:18;;;;;;;14.33;8.67;;;;;;;16.25;90.43;94301.30;1702224;82;21611;-54
2021/07/06 02:10:48;;;;;;;11.88;6.95;;;;;;;16.25;90.43;94301.30;1707179;83;21109;-54
2021/07/06 02:13:21;;;;;;;13.28;8.18;;;;;;;16.27;90.62;94302.20;1662977;83;20988;-54
2021/07/06 02:15:51;;;;;;;15.15;7.92;;;;;;;16.26;90.53;94295.88;1707914;82;21016;-54
2021/07/06 02:18:20;;;;;;;19.98;10.08;;;;;;;16.25;90.49;94299.16;1707711;84;21020;-54
2021/07/06 02:20:50;;;;;;;18.27;11.33;;;;;;;16.22;90.71;94307.84;1704344;83;21061;-54
2021/07/06 02:23:16;;;;;;;19.57;12.15;;;;;;;16.20;90.62;94310.97;1703607;83;21094;-53
2021/07/06 02:25:46;;;;;;;28.75;14.20;;;;;;;16.15;90.53;94305.53;1711815;82;20979;-52
2021/07/06 02:28:12;;;;;;;27.25;14.90;;;;;;;16.14;90.57;94304.62;1705388;83;21131;-53
2021/07/06 02:30:40;;;;;;;23.75;13.78;;;;;;;16.14;90.65;94306.78;1707996;82;21028;-55
2021/07/06 02:33:06;;;;;;;34.65;16.15;;;;;;;16.17;90.94;94307.18;1707885;83;21142;-56
2021/07/06 02:35:33;;;;;;;25.10;14.45;;;;;;;16.25;91.11;94311.01;1703453;82;21132;-54
2021/07/06 02:38:01;;;;;;;19.85;11.20;;;;;;;16.33;90.85;94316.26;1702428;82;20982;-55
2021/07/06 02:40:28;;;;;;;18.25;11.45;;;;;;;16.39;90.63;94315.69;1717270;82;21044;-61
2021/07/06 02:42:55;;;;;;;18.67;11.88;;;;;;;16.47;90.33;94316.13;1700192;82;21021;-58
2021/07/06 02:45:22;;;;;;;21.23;13.00;;;;;;;16.49;90.00;94312.22;1710015;82;20972;-67
2021/07/06 02:47:50;;;;;;;22.10;13.13;;;;;;;16.50;89.95;94318.52;1702831;83;21129;-66
2021/07/06 02:50:19;;;;;;;21.97;13.05;;;;;;;16.47;89.99;94325.07;1703454;83;21071;-66
2021/07/06 02:52:46;;;;;;;39.53;15.32;;;;;;;16.51;89.78;94333.95;1699560;82;21078;-67
2021/07/06 02:55:13;;;;;;;30.97;14.00;;;;;;;16.51;89.56;94322.85;1707705;84;20990;-67
2021/07/06 02:57:41;;;;;;;23.85;15.25;;;;;;;16.49;89.35;94333.05;1708137;83;21614;-66
2021/07/06 03:00:21;;;;;;;22.60;15.08;;;;;;;16.50;89.49;94327.63;1712621;83;21082;-66
2021/07/06 03:02:52;;;;;;;21.87;13.80;;;;;;;16.52;89.55;94330.67;1713958;81;21051;-64
2021/07/06 03:05:21;;;;;;;22.93;13.48;;;;;;;16.54;89.23;94331.58;1717642;83;21512;-64
2021/07/06 03:07:48;;;;;;;13.83;10.32;;;;;;;16.56;89.01;94329.06;1670949;82;21569;-64
2021/07/06 03:10:19;;;;;;;19.80;10.25;;;;;;;16.52;88.89;94334.09;1710878;82;21040;-63
2021/07/06 03:12:45;;;;;;;43.50;12.47;;;;;;;16.49;89.05;94335.83;1703276;83;21563;-64
2021/07/06 03:15:15;;;;;;;43.20;12.00;;;;;;;16.46;89.08;94337.44;1703906;82;21103;-56
2021/07/06 03:17:43;;;;;;;62.83;13.40;;;;;;;16.44;89.32;94348.28;1710243;82;20984;-56
2021/07/06 03:20:13;;;;;;;24.35;10.98;;;;;;;16.47;89.45;94341.73;1700969;83;21065;-56
2021/07/06 03:22:40;;;;;;;20.15;11.73;;;;;;;16.53;89.58;94346.72;1707443;82;21032;-55
2021/07/06 03:25:09;;;;;;;19.50;11.33;;;;;;;16.61;89.39;94348.54;1707970;83;21939;-55
2021/07/06 03:27:39;;;;;;;24.98;11.35;;;;;;;16.70;89.16;94344.81;1708513;81;21035;-55
2021/07/06 03:30:12;;;;;;;18.40;9.93;;;;;;;16.74;89.07;94342.55;1709740;82;21140;-55
2021/07/06 03:32:39;;;;;;;15.30;10.00;;;;;;;16.81;88.98;94341.47;1702416;82;21575;-56
2021/07/06 03:35:07;;;;;;;20.57;10.50;;;;;;;16.87;88.72;94349.84;1702876;82;21243;-54
2021/07/06 03:37:35;;;;;;;14.40;9.45;;;;;;;16.90;88.58;94354.39;1697944;82;21422;-54
2021/07/06 03:40:08;;;;;;;16.42;9.83;;;;;;;16.94;88.53;94350.75;1707630;83;20984;-55
2021/07/06 03:42:36;;;;;;;13.30;9.23;;;;;;;17.00;88.33;94351.53;1710803;82;21039;-55
2021/07/06 03:45:05;;;;;;;25.62;9.70;;;;;;;17.07;88.34;94355.99;1667189;84;20978;-56
2021/07/06 03:47:31;;;;;;;13.00;7.92;;;;;;;17.18;87.88;94359.45;1715072;83;20979;-54
2021/07/06 03:49:58;;;;;;;11.95;8.45;;;;;;;17.24;87.44;94355.44;1700633;82;21188;-54
2021/07/06 03:52:25;;;;;;;11.90;8.90;;;;;;;17.29;87.24;94367.85;1674177;83;20991;-55
2021/07/06 03:54:51;;;;;;;12.10;8.65;;;;;;;17.31;86.97;94368.85;1704069;82;21016;-55
2021/07/06 03:57:28;;;;;;;14.35;8.35;;;;;;;17.31;86.45;94363.94;1708267;82;21087;-54
2021/07/06 03:59:47;;;;;;;15.53;8.65;;;;;;;17.32;86.07;94373.80;1716454;83;21233;-55
2021/07/06 04:02:16;;;;;;;11.10;7.78;;;;;;;17.32;85.98;94371.02;1711649;83;21770;-56
2021/07/06 04:04:44;;;;;;;13.60;7.05;;;;;;;17.37;85.80;94374.47;1707779;83;21412;-55
2021/07/06 04:07:10;;;;;;;14.50;7.60;;;;;;;17.42;85.60;94376.53;1706753;82;21433;-55
2021/07/06 04:09:37;;;;;;;15.00;7.58;;;;;;;17.43;85.47;94373.88;1701121;82;21038;-55
2021/07/06 04:12:06;;;;;;;10.53;7.90;;;;;;;17.46;85.37;94375.02;1697888;83;21029;-55
2021/07/06 04:14:33;;;;;;;8.78;7.58;;;;;;;17.53;85.27;94373.78;1712491;82;21677;-55
2021/07/06 04:17:01;;;;;;;9.98;7.15;;;;;;;17.57;84.82;94372.90;1717008;83;20972;-55
2021/07/06 04:19:31;;;;;;;12.68;8.13;;;;;;;17.61;84.78;94374.19;1707596;83;21520;-55
2021/07/06 04:21:57;;;;;;;10.63;7.95;;;;;;;17.64;84.61;94372.44;1707579;83;21079;-55
2021/07/06 04:24:24;;;;;;;11.95;8.55;;;;;;;17.66;84.58;94380.39;1706397;83;21053;-55
2021/07/06 04:26:53;;;;;;;10.40;7.55;;;;;;;17.68;84.58;94381.30;1699615;82;20970;-55
2021/07/06 04:29:20;;;;;;;11.63;7.45;;;;;;;17.71;84.71;94376.11;1699461;83;21023;-56
2021/07/06 04:31:47;;;;;;;12.15;7.62;;;;;;;17.74;84.71;94383.45;1688433;83;21130;-55
2021/07/06 04:34:15;;;;;;;11.18;8.05;;;;;;;17.72;84.75;94383.97;1668770;83;38903;-55
2021/07/06 04:36:42;;;;;;;12.65;8.33;;;;;;;17.74;84.97;94380.05;1698980;82;21238;-56
2021/07/06 04:39:09;;;;;;;17.65;8.50;;;;;;;17.75;85.02;94383.58;1704350;83;21201;-55
2021/07/06 04:41:36;;;;;;;11.57;9.75;;;;;;;17.75;85.04;94390.53;1713463;82;21102;-54
2021/07/06 04:44:03;;;;;;;10.05;8.55;;;;;;;17.77;85.16;94387.39;1697189;82;21483;-54
2021/07/06 04:46:30;;;;;;;9.53;7.95;;;;;;;17.80;84.75;94385.64;1705905;83;21060;-55
2021/07/06 04:48:57;;;;;;;11.00;8.50;;;;;;;17.85;84.68;94390.45;1707989;83;21038;-55
2021/07/06 04:51:24;;;;;;;13.10;8.23;;;;;;;17.91;84.43;94394.77;1719381;82;21137;-55
2021/07/06 04:53:50;;;;;;;12.75;8.40;;;;;;;18.01;84.17;94391.87;1738602;82;21568;-56
2021/07/06 04:56:17;;;;;;;11.33;8.23;;;;;;;18.11;83.59;94395.17;1733764;81;21064;-54
2021/07/06 04:58:44;;;;;;;12.30;7.17;;;;;;;18.17;82.78;94394.57;1695058;81;21089;-54
2021/07/06 05:01:11;;;;;;;13.10;8.30;;;;;;;18.20;82.72;94396.47;1697855;83;21083;-54
2021/07/06 05:03:38;;;;;;;23.02;9.03;;;;;;;18.30;82.44;94394.23;1644489;84;21957;-55
2021/07/06 05:06:04;;;;;;;11.55;8.98;;;;;;;18.39;81.97;94389.17;1703064;82;21012;-54
2021/07/06 05:08:31;;;;;;;14.40;8.85;;;;;;;18.48;81.62;94394.47;1706768;83;20976;-56
2021/07/06 05:11:00;;;;;;;11.05;8.30;;;;;;;18.50;81.30;94391.94;1677690;83;21692;-55
2021/07/06 05:13:28;;;;;;;14.75;9.25;;;;;;;18.55;81.06;94396.00;1688365;84;21195;-57
2021/07/06 05:15:54;;;;;;;14.35;9.68;;;;;;;18.60;80.83;94396.00;1641766;84;21156;-55
2021/07/06 05:18:21;;;;;;;18.48;11.90;;;;;;;18.66;80.44;94392.57;1676539;84;21040;-55
2021/07/06 05:20:47;;;;;;;19.15;10.90;;;;;;;18.74;80.25;94390.81;1702063;82;21030;-55
2021/07/06 05:23:16;;;;;;;16.97;10.55;;;;;;;18.86;80.00;94383.94;1701097;83;21404;-55
2021/07/06 05:25:43;;;;;;;18.70;11.50;;;;;;;18.97;79.60;94392.30;1702187;83;21157;-57
2021/07/06 05:28:09;;;;;;;17.85;10.18;;;;;;;19.08;79.21;94396.47;1674805;83;21806;-55
2021/07/06 05:30:36;;;;;;;17.90;9.75;;;;;;;19.20;79.27;94397.22;1712430;82;21588;-60
2021/07/06 05:33:03;;;;;;;19.57;8.10;;;;;;;19.35;78.92;94398.44;1696900;81;21039;-55
2021/07/06 05:35:30;;;;;;;13.98;9.28;;;;;;;19.49;78.35;94395.22;1676349;83;21056;-66
2021/07/06 05:37:57;;;;;;;20.68;8.83;;;;;;;19.57;77.54;94388.59;1675985;84;21056;-61
2021/07/06 05:40:23;;;;;;;17.35;9.25;;;;;;;19.66;77.22;94391.72;1672537;84;21442;-61
2021/07/06 05:42:50;;;;;;;13.43;9.30;;;;;;;19.77;77.39;94400.06;1653571;83;21011;-57
2021/07/06 05:45:17;;;;;;;16.57;9.05;;;;;;;19.90;76.82;94395.42;1698804;82;22159;-59
2021/07/06 05:47:44;;;;;;;10.65;7.95;;;;;;;19.98;76.37;94407.58;1707094;83;21067;-58
2021/07/06 05:50:14;;;;;;;18.80;8.63;;;;;;;20.03;76.13;94402.62;1704828;82;21001;-59
2021/07/06 05:52:41;;;;;;;20.68;9.13;;;;;;;20.10;76.06;94404.11;1686991;81;21931;-57
2021/07/06 05:55:09;;;;;;;17.15;8.23;;;;;;;20.21;75.76;94403.41;1719564;82;21085;-57
2021/07/06 05:57:39;;;;;;;16.10;8.68;;;;;;;20.24;75.40;94407.95;1702131;81;21661;-56
2021/07/06 06:00:08;;;;;;;13.83;8.35;;;;;;;20.30;75.30;94410.06;1661317;84;21011;-63
2021/07/06 06:02:37;;;;;;;14.65;8.45;;;;;;;20.32;75.15;94417.28;1648245;84;21489;-57
2021/07/06 06:05:05;;;;;;;13.20;8.70;;;;;;;20.41;75.29;94408.59;1663867;85;21307;-56
2021/07/06 06:07:41;;;;;;;15.63;8.35;;;;;;;20.57;75.44;94411.92;1699094;82;21495;-59
2021/07/06 06:10:10;;;;;;;13.70;8.28;;;;;;;20.73;74.99;94411.03;1710141;82;21010;-57
2021/07/06 06:12:37;;;;;;;15.10;8.40;;;;;;;20.87;74.51;94402.91;1708461;81;21040;-59
2021/07/06 06:15:06;;;;;;;9.33;7.95;;;;;;;21.02;74.09;94406.86;1696788;82;21062;-62
2021/07/06 06:17:33;;;;;;;12.45;8.10;;;;;;;21.14;73.33;94406.11;1718428;81;21334;-58
2021/07/06 06:20:02;;;;;;;22.80;9.85;;;;;;;21.27;72.96;94403.44;1698982;81;21092;-58
2021/07/06 06:22:29;;;;;;;11.48;7.75;;;;;;;21.41;72.70;94411.42;1684094;82;21101;-57
2021/07/06 06:24:55;;;;;;;11.22;8.28;;;;;;;21.52;72.19;94404.94;1716782;81;21075;-55
2021/07/06 06:27:22;;;;;;;11.25;8.15;;;;;;;21.59;71.40;94405.73;1712891;82;21537;-63
2021/07/06 06:29:49;;;;;;;16.65;8.55;;;;;;;21.58;71.17;94402.83;1709299;82;21248;-62
2021/07/06 06:32:16;;;;;;;16.60;8.88;;;;;;;21.52;71.19;94406.34;1714789;82;20972;-55
2021/07/06 06:34:45;;;;;;;22.37;8.83;;;;;;;21.52;71.31;94409.14;1696905;82;21052;-59
2021/07/06 06:37:12;;;;;;;21.25;8.53;;;;;;;21.54;71.59;94409.37;1704617;81;21086;-56
2021/07/06 06:39:40;;;;;;;23.83;10.68;;;;;;;21.49;71.47;94408.80;1694240;81;21027;-63
2021/07/06 06:42:07;;;;;;;37.17;11.28;;;;;;;21.46;71.85;94408.45;1706635;82;21651;-59
2021/07/06 06:44:34;;;;;;;13.78;8.55;;;;;;;21.51;71.97;94406.23;1710286;82;21062;-66
2021/07/06 06:47:01;;;;;;;22.98;10.28;;;;;;;21.59;71.76;94409.94;1696690;82;20953;-54
2021/07/06 06:49:28;;;;;;;13.13;8.90;;;;;;;21.68;71.52;94401.97;1693395;82;21137;-59
2021/07/06 06:51:55;;;;;;;12.23;8.63;;;;;;;21.80;71.39;94401.22;1707995;82;21066;-55
2021/07/06 06:54:22;;;;;;;15.53;8.08;;;;;;;21.98;70.83;94403.27;1688926;83;21077;-58
2021/07/06 06:56:49;;;;;;;16.52;9.23;;;;;;;22.13;70.17;94399.47;1655623;84;21037;-61
2021/07/06 06:59:15;;;;;;;11.93;8.08;;;;;;;22.30;70.04;94404.20;1683414;83;21187;-59
2021/07/06 07:01:44;;;;;;;20.35;9.15;;;;;;;22.47;69.38;94401.94;1689184;83;21622;-62
2021/07/06 07:04:13;;;;;;;11.80;8.88;;;;;;;22.66;68.96;94405.47;1666616;83;21194;-56
2021/07/06 07:06:39;;;;;;;11.97;9.30;;;;;;;22.87;68.88;94407.80;1672234;83;21086;-56
2021/07/06 07:09:08;;;;;;;21.45;9.75;;;;;;;23.06;68.22;94404.95;1651232;83;21048;-61
2021/07/06 07:11:35;;;;;;;14.38;8.53;;;;;;;23.23;67.54;94394.22;1669630;83;21054;-60
2021/07/06 07:14:03;;;;;;;12.98;8.23;;;;;;;23.36;66.76;94396.39;1675361;84;21015;-61
2021/07/06 07:16:30;;;;;;;11.60;8.50;;;;;;;23.49;66.29;94399.86;1678960;84;20999;-61
2021/07/06 07:18:57;;;;;;;12.20;8.18;;;;;;;23.60;66.03;94403.20;1670314;83;21240;-58
2021/07/06 07:21:24;;;;;;;12.95;7.60;;;;;;;23.64;65.41;94402.25;1677350;83;21002;-57
2021/07/06 07:23:51;;;;;;;11.38;7.30;;;;;;;23.64;65.28;94409.91;1680500;83;21136;-57
2021/07/06 07:26:17;;;;;;;11.75;8.10;;;;;;;23.67;64.77;94408.19;1665552;83;21025;-58
2021/07/06 07:28:44;;;;;;;15.72;7.92;;;;;;;23.66;64.97;94403.88;1716665;81;21110;-64
2021/07/06 07:31:11;;;;;;;23.07;8.40;;;;;;;23.63;64.55;94400.74;1703239;81;21679;-61
2021/07/06 07:33:38;;;;;;;20.05;8.13;;;;;;;23.64;64.76;94405.70;1716060;82;20986;-61
2021/07/06 07:36:05;;;;;;;42.73;11.38;;;;;;;23.67;64.94;94408.83;1714449;82;21007;-65
2021/07/06 07:38:32;;;;;;;18.95;8.65;;;;;;;23.75;65.03;94401.28;1687504;82;21486;-68
2021/07/06 07:40:59;;;;;;;12.53;6.97;;;;;;;23.84;64.40;94410.69;1706563;82;21040;-62
2021/07/06 07:43:25;;;;;;;9.33;7.05;;;;;;;23.94;63.10;94407.56;1712394;82;21151;-63
2021/07/06 07:45:52;;;;;;;9.93;6.03;;;;;;;23.97;62.36;94405.81;1665244;84;21060;-60
2021/07/06 07:48:19;;;;;;;8.58;6.70;;;;;;;23.97;62.61;94403.66;1682431;83;21080;-60
2021/07/06 07:50:47;;;;;;;8.20;6.72;;;;;;;23.95;61.87;94415.44;1697765;82;21127;-61
2021/07/06 07:53:15;;;;;;;7.42;5.50;;;;;;;24.00;62.48;94401.94;1714591;82;21083;-61
2021/07/06 07:55:42;;;;;;;9.18;5.03;;;;;;;24.15;59.65;94394.44;1712735;81;21234;-64
2021/07/06 07:58:09;;;;;;;6.60;5.72;;;;;;;24.31;60.63;94396.77;1708526;82;21657;-61
2021/07/06 08:00:36;;;;;;;8.13;6.33;;;;;;;24.49;59.66;94398.66;1708114;82;21491;-62
2021/07/06 08:03:03;;;;;;;5.20;4.75;;;;;;;24.63;59.86;94401.58;1722878;81;21491;-63
2021/07/06 08:05:30;;;;;;;9.13;5.10;;;;;;;24.71;57.57;94398.17;1707243;82;21170;-60
2021/07/06 08:08:00;;;;;;;9.08;4.83;;;;;;;24.71;57.83;94395.36;1708906;81;21187;-57
2021/07/06 08:10:27;;;;;;;5.08;4.58;;;;;;;24.74;56.94;94394.30;1705204;82;21182;-62
2021/07/06 08:12:54;;;;;;;5.97;4.33;;;;;;;24.73;56.87;94397.00;1704775;82;21222;-56
2021/07/06 08:15:21;;;;;;;7.92;6.20;;;;;;;24.62;56.07;94405.69;1719167;82;21061;-58
2021/07/06 08:17:47;;;;;;;7.37;5.65;;;;;;;24.47;56.26;94402.68;1720550;82;21018;-57
2021/07/06 08:20:14;;;;;;;14.58;4.80;;;;;;;24.38;56.30;94403.16;1706438;82;21129;-59
2021/07/06 08:22:41;;;;;;;5.55;4.60;;;;;;;24.38;56.50;94406.70;1705150;82;21115;-57
2021/07/06 08:25:09;;;;;;;5.40;4.85;;;;;;;24.48;56.57;94402.14;1693939;82;21049;-56
2021/07/06 08:27:36;;;;;;;8.48;5.25;;;;;;;24.57;56.75;94403.77;1694769;82;21549;-59
2021/07/06 08:30:06;;;;;;;6.40;5.15;;;;;;;24.58;56.54;94404.61;1711027;81;21507;-60
2021/07/06 08:32:33;;;;;;;8.98;6.42;;;;;;;24.59;57.23;94411.02;1702959;82;21682;-57
2021/07/06 08:35:01;;;;;;;6.65;5.47;;;;;;;24.58;57.24;94410.91;1704809;82;20958;-56
2021/07/06 08:37:29;;;;;;;7.83;5.78;;;;;;;24.58;57.12;94409.50;1710317;81;21155;-62
2021/07/06 08:39:56;;;;;;;7.58;4.30;;;;;;;24.57;57.69;94411.55;1716304;81;21526;-60
2021/07/06 08:42:23;;;;;;;9.05;5.12;;;;;;;24.60;55.93;94413.92;1708169;81;21492;-58
2021/07/06 08:44:50;;;;;;;4.80;4.30;;;;;;;24.63;57.13;94410.02;1698325;83;21500;-59
2021/07/06 08:47:16;;;;;;;10.72;5.67;;;;;;;24.75;57.64;94402.84;1707798;81;21083;-61
2021/07/06 08:49:47;;;;;;;5.62;4.78;;;;;;;25.00;58.95;94412.45;1720554;81;20993;-58
2021/07/06 08:52:15;;;;;;;7.10;4.53;;;;;;;25.30;57.39;94402.90;1709482;81;21014;-60
2021/07/06 08:54:42;;;;;;;6.80;5.20;;;;;;;25.62;56.43;94408.30;1716547;82;21147;-56
2021/07/06 08:57:09;;;;;;;5.12;4.62;;;;;;;25.91;55.46;94416.13;1702307;82;21055;-58
2021/07/06 08:59:40;;;;;;;8.58;4.97;;;;;;;26.13;53.56;94409.20;1696734;82;21050;-61
2021/07/06 09:02:11;;;;;;;9.85;5.22;;;;;;;26.33;52.77;94399.89;1705929;81;21052;-69
2021/07/06 09:04:48;;;;;;;6.25;4.60;;;;;;;26.48;52.30;94399.98;1699588;82;21040;-60
2021/07/06 09:07:15;;;;;;;6.70;4.87;;;;;;;26.53;52.94;94401.20;1707865;82;21128;-61
2021/07/06 09:09:42;;;;;;;7.83;4.60;;;;;;;26.56;52.33;94397.92;1691164;82;21137;-59
2021/07/06 09:12:11;;;;;;;4.55;4.15;;;;;;;26.65;50.97;94395.31;1704562;82;21002;-57
2021/07/06 09:14:44;;;;;;;9.00;4.53;;;;;;;26.78;53.08;94399.41;1709825;82;22360;-59
2021/07/06 09:17:23;;;;;;;7.67;3.80;;;;;;;26.88;52.08;94401.77;1706544;82;21097;-62
2021/07/06 09:19:56;;;;;;;4.85;4.20;;;;;;;26.85;50.92;94401.48;1703633;82;21071;-58
2021/07/06 09:22:34;;;;;;;5.40;4.33;;;;;;;26.73;50.72;94401.75;1695554;82;21197;-60
2021/07/06 09:25:10;;;;;;;6.20;4.15;;;;;;;26.54;50.29;94391.45;1692820;82;21080;-59
2021/07/06 09:27:38;;;;;;;7.72;4.30;;;;;;;26.34;50.86;94399.31;1711134;82;21590;-58
2021/07/06 09:30:15;;;;;;;9.45;5.83;;;;;;;26.19;51.46;94401.33;1712306;82;21006;-56
2021/07/06 09:32:50;;;;;;;4.85;4.30;;;;;;;26.18;53.47;94399.17;1712873;82;22108;-65
2021/07/06 09:35:28;;;;;;;5.17;4.65;;;;;;;26.37;54.47;94397.45;1694490;82;21164;-62
2021/07/06 09:37:59;;;;;;;4.65;4.25;;;;;;;26.65;53.89;94399.55;1716120;82;21046;-68
2021/07/06 09:40:35;;;;;;;6.10;4.20;;;;;;;26.87;52.33;94397.44;1706508;81;21008;-57
2021/07/06 09:43:25;;;;;;;4.90;4.40;;;;;;;26.99;51.56;94404.88;1708788;82;21582;-58
2021/07/06 09:46:03;;;;;;;4.67;4.25;;;;;;;26.97;51.16;94404.05;1719002;82;21053;-65
2021/07/06 09:48:33;;;;;;;6.30;4.40;;;;;;;26.95;52.43;94403.86;1700657;82;22159;-59
2021/07/06 09:51:24;;;;;;;9.08;4.28;;;;;;;27.08;49.67;94400.88;1703630;81;21091;-60
2021/07/06 09:53:54;;;;;;;4.95;4.15;;;;;;;27.22;49.71;94402.89;1717948;81;21076;-59
2021/07/06 09:56:23;;;;;;;9.10;4.33;;;;;;;27.42;52.09;94397.03;1704313;82;21090;-57
2021/07/06 09:59:00;;;;;;;6.20;5.30;;;;;;;27.63;50.68;94404.68;1709330;82;21620;-57
2021/07/06 10:01:28;;;;;;;6.78;4.35;;;;;;;27.75;47.59;94405.80;1696626;81;21149;-57
2021/07/06 10:03:56;;;;;;;8.05;5.37;;;;;;;27.70;49.55;94398.25;1706653;82;21026;-58
2021/07/06 10:06:27;;;;;;;4.72;4.20;;;;;;;27.75;47.95;94396.59;1694608;82;21662;-56
2021/07/06 10:08:58;;;;;;;5.30;4.35;;;;;;;27.77;48.51;94393.94;1701265;82;21052;-55
2021/07/06 10:11:26;;;;;;;4.77;4.37;;;;;;;27.81;50.17;94395.05;1698623;82;21658;-56
2021/07/06 10:13:56;;;;;;;6.58;3.98;;;;;;;27.96;52.46;94395.02;1711602;82;21044;-58
2021/07/06 10:16:25;;;;;;;20.77;5.72;;;;;;;27.95;50.35;94398.52;1703985;83;21089;-58
2021/07/06 10:18:51;;;;;;;7.10;4.53;;;;;;;27.95;51.05;94394.93;1712129;82;21015;-60
2021/07/06 10:21:19;;;;;;;6.10;4.90;;;;;;;28.12;50.85;94402.14;1705900;82;21383;-59
2021/07/06 10:23:49;;;;;;;4.55;4.15;;;;;;;28.36;50.73;94398.04;1705826;82;21113;-57
2021/07/06 10:26:28;;;;;;;7.55;4.30;;;;;;;28.56;48.57;94399.84;1712329;83;21621;-57
2021/07/06 10:28:56;;;;;;;5.50;4.30;;;;;;;28.75;49.58;94402.22;1689054;83;21508;-56
2021/07/06 10:31:25;;;;;;;3.98;3.58;;;;;;;28.87;48.88;94394.12;1709443;82;20976;-60
2021/07/06 10:33:52;;;;;;;6.08;4.12;;;;;;;28.97;48.00;94394.27;1654452;84;21091;-57
2021/07/06 10:36:37;;;;;;;6.92;3.85;;;;;;;29.06;46.60;94397.23;1688340;83;21010;-56
2021/07/06 10:39:06;;;;;;;4.58;3.92;;;;;;;29.18;48.09;94396.88;1707657;82;21162;-57
2021/07/06 10:41:41;;;;;;;7.15;4.10;;;;;;;29.20;45.98;94397.70;1708394;81;21065;-55
2021/07/06 10:44:09;;;;;;;4.85;4.35;;;;;;;29.24;45.45;94403.72;1711801;81;21065;-56
2021/07/06 10:46:43;;;;;;;6.30;3.85;;;;;;;29.26;44.48;94393.97;1711779;82;21045;-59
2021/07/06 10:49:34;;;;;;;;;;;;;;;29.50;45.06;94394.00;1703274;81;21438;-61
2021/07/06 10:52:03;;;;;;;9.80;5.12;;;;;;;29.79;45.06;94389.41;1696952;82;21169;-59
2021/07/06 10:54:34;;;;;;;4.58;3.80;;;;;;;29.73;44.25;94388.13;1697841;82;21107;-57
2021/07/06 10:57:13;;;;;;;7.83;6.12;;;;;;;29.55;44.03;94390.84;1712727;82;21494;-56
2021/07/06 10:59:40;;;;;;;8.20;5.03;;;;;;;29.27;44.27;94389.80;1708058;82;21486;-58
2021/07/06 11:02:26;;;;;;;9.15;6.33;;;;;;;28.91;45.81;94388.83;1710926;81;21069;-57
2021/07/06 11:04:57;;;;;;;5.67;4.40;;;;;;;28.68;46.32;94395.91;1716666;82;21784;-61
2021/07/06 11:07:38;;;;;;;5.15;4.65;;;;;;;28.52;46.65;94394.48;1704641;81;21049;-59
2021/07/06 11:10:08;;;;;;;5.40;3.85;;;;;;;28.47;45.62;94391.20;1661803;84;21104;-61
2021/07/06 11:12:37;;;;;;;4.80;4.33;;;;;;;28.61;45.22;94385.39;1690303;82;20998;-55
2021/07/06 11:15:27;;;;;;;5.80;3.80;;;;;;;28.90;45.50;94389.39;1707923;81;21076;-59
2021/07/06 11:18:03;;;;;;;4.62;4.00;;;;;;;29.47;44.69;94385.23;1710194;82;21181;-57
2021/07/06 11:20:45;;;;;;;14.00;4.30;;;;;;;30.14;42.58;94391.70;1703518;81;21045;-64
2021/07/06 11:23:30;;;;;;;7.03;4.97;;;;;;;30.74;43.37;94389.60;1712461;82;21037;-58
2021/07/06 11:26:04;;;;;;;6.47;3.87;;;;;;;31.34;44.22;94385.91;1705094;82;21602;-58
2021/07/06 11:28:31;;;;;;;5.53;4.03;;;;;;;31.94;42.40;94382.08;1709028;81;21098;-60
2021/07/06 11:31:02;;;;;;;6.62;3.87;;;;;;;32.41;40.13;94382.14;1718421;82;21198;-63
2021/07/06 11:33:40;;;;;;;4.60;4.20;;;;;;;32.76;39.32;94381.19;1692878;81;21505;-59
2021/07/06 11:36:07;;;;;;;10.75;4.35;;;;;;;33.02;38.36;94388.12;1703147;81;21413;-72